Avoca, Minnesota
Current Conditions -  °F | °C
As of 7:54 AM on Friday 24 Oct 2014 (Local Time) from KDVP Reporting Station
Clear Clear  
Wind Chill: 47°   Ceiling: Unl
Heat Index: 50°   Visibility: 7mi
Dew Point: 49°   Wind: 8mph
Humidity: 96%   Direction: 220°SW
Pressure: 29.84"   Gusts: NA
Location:  43.95°N, 95.65°W
Report Text: KDVP 241254Z AUTO 22007KT 7SM CLR 10/09 A2984 RMK AO2 T00990093
Loading
Personal Weather Stations






























Interactive Weather Map
Tropical Storm Tracking
New forecast layout! Learn more

10-Day Weather Forecast

Advertisements
Track Severe Weather on mobile